KALW/ALW METAR and TAF weather

Enter ICAO airport designator
Station Type Date Time Source
KALW METAR 2018/01/19 22:53 UTC NOAA

KALW 192253Z 23006KT 10SM BKN075 BKN100 08/01 A2995 RMK AO2 SLP147 T00830006


Station Type Date Time Source
KALW Decoded METAR 2018/01/19 22:53 UTC NOAA

WALLA WALLA REGIONAL AIRPORT, WA, United States (KALW) 46-06N 118-17W 363M
Jan 19, 2018 - 05:53 PM EST / 2018.01.19 2253 UTC
Wind: from the SW (230 degrees) at 7 MPH (6 KT):0
Visibility: 10 mile(s):0
Sky conditions: mostly cloudy
Temperature: 46.9 F (8.3 C)
Dew Point: 33.1 F (0.6 C)
Relative Humidity: 58%
Pressure (altimeter): 29.95 in. Hg (1014 hPa)
ob: KALW 192253Z 23006KT 10SM BKN075 BKN100 08/01 A2995 RMK AO2 SLP147 T00830006
cycle: 23

Station Type Date Time Source
KALW TAF 2018/01/19 18:24 UTC NOAA

TAF KALW 191721Z 1918/2018 21010KT P6SM SCT050 BKN100
FM200200 16010KT P6SM BKN050


Example: see airport list